sensor_id;sensor_type;location;lat;lon;timestamp;pressure;altitude;pressure_sealevel;temperature;humidity
48792;BME280;34587;48.816;9.420;2023-05-23T04:17:29;98664.75;;;16.02;100.00
48792;BME280;34587;48.816;9.420;2023-05-23T04:19:55;98665.28;;;16.10;100.00
48792;BME280;34587;48.816;9.420;2023-05-23T04:22:21;98666.53;;;16.00;100.00
48792;BME280;34587;48.816;9.420;2023-05-23T04:24:46;98666.03;;;16.12;100.00
48792;BME280;34587;48.816;9.420;2023-05-23T04:29:39;98662.50;;;16.13;100.00
48792;BME280;34587;48.816;9.420;2023-05-23T04:32:05;98669.63;;;16.10;100.00
48792;BME280;34587;48.816;9.420;2023-05-23T04:34:31;98664.09;;;16.17;100.00
48792;BME280;34587;48.816;9.420;2023-05-23T04:37:00;98668.59;;;16.14;100.00
48792;BME280;34587;48.816;9.420;2023-05-23T04:39:27;98667.63;;;16.16;100.00
48792;BME280;34587;48.816;9.420;2023-05-23T04:41:53;98668.34;;;16.20;100.00
48792;BME280;34587;48.816;9.420;2023-05-23T04:44:19;98677.94;;;16.19;100.00
48792;BME280;34587;48.816;9.420;2023-05-23T04:46:44;98671.28;;;16.33;100.00
48792;BME280;34587;48.816;9.420;2023-05-23T04:49:10;98677.41;;;16.32;100.00
48792;BME280;34587;48.816;9.420;2023-05-23T04:51:37;98676.66;;;16.30;100.00
48792;BME280;34587;48.816;9.420;2023-05-23T04:54:02;98675.19;;;16.43;100.00
48792;BME280;34587;48.816;9.420;2023-05-23T04:56:28;98680.16;;;16.49;100.00
48792;BME280;34587;48.816;9.420;2023-05-23T04:58:53;98685.19;;;16.54;100.00
48792;BME280;34587;48.816;9.420;2023-05-23T05:01:19;98687.38;;;16.44;100.00
48792;BME280;34587;48.816;9.420;2023-05-23T05:03:44;98695.72;;;16.52;100.00
48792;BME280;34587;48.816;9.420;2023-05-23T05:06:10;98688.50;;;16.57;100.00
48792;BME280;34587;48.816;9.420;2023-05-23T05:08:35;98687.47;;;16.82;100.00
48792;BME280;34587;48.816;9.420;2023-05-23T05:11:01;98684.66;;;17.05;100.00
48792;BME280;34587;48.816;9.420;2023-05-23T05:13:26;98690.19;;;17.18;100.00
48792;BME280;34587;48.816;9.420;2023-05-23T05:15:51;98683.69;;;17.27;100.00
48792;BME280;34587;48.816;9.420;2023-05-23T05:18:17;98696.34;;;17.36;100.00
48792;BME280;34587;48.816;9.420;2023-05-23T05:20:42;98690.38;;;17.51;100.00
48792;BME280;34587;48.816;9.420;2023-05-23T05:23:07;98691.13;;;17.53;100.00
48792;BME280;34587;48.816;9.420;2023-05-23T05:25:33;98703.06;;;17.41;100.00
48792;BME280;34587;48.816;9.420;2023-05-23T05:28:01;98705.38;;;17.47;100.00
48792;BME280;34587;48.816;9.420;2023-05-23T05:30:32;98704.19;;;17.36;100.00
48792;BME280;34587;48.816;9.420;2023-05-23T05:33:00;98703.69;;;17.46;100.00
48792;BME280;34587;48.816;9.420;2023-05-23T05:35:29;98704.03;;;17.39;100.00
48792;BME280;34587;48.816;9.420;2023-05-23T05:37:54;98696.69;;;17.47;100.00
48792;BME280;34587;48.816;9.420;2023-05-23T05:40:20;98699.78;;;17.55;100.00
48792;BME280;34587;48.816;9.420;2023-05-23T05:42:45;98690.72;;;17.62;100.00
48792;BME280;34587;48.816;9.420;2023-05-23T05:45:10;98697.34;;;17.69;100.00
48792;BME280;34587;48.816;9.420;2023-05-23T05:47:36;98693.09;;;17.86;100.00
48792;BME280;34587;48.816;9.420;2023-05-23T05:50:06;98691.09;;;18.43;97.59
48792;BME280;34587;48.816;9.420;2023-05-23T05:52:35;98686.50;;;18.64;93.93
48792;BME280;34587;48.816;9.420;2023-05-23T05:55:08;98693.25;;;18.35;96.19
48792;BME280;34587;48.816;9.420;2023-05-23T05:57:40;98695.94;;;18.68;95.98
48792;BME280;34587;48.816;9.420;2023-05-23T06:00:12;98700.53;;;18.47;94.19
48792;BME280;34587;48.816;9.420;2023-05-23T06:02:42;98698.66;;;18.49;94.83
48792;BME280;34587;48.816;9.420;2023-05-23T06:05:10;98700.34;;;18.50;93.93
48792;BME280;34587;48.816;9.420;2023-05-23T06:07:40;98698.50;;;18.17;95.32
48792;BME280;34587;48.816;9.420;2023-05-23T06:10:06;98702.59;;;18.58;94.83
48792;BME280;34587;48.816;9.420;2023-05-23T06:12:33;98708.50;;;18.61;94.24
48792;BME280;34587;48.816;9.420;2023-05-23T06:14:59;98704.78;;;18.65;95.03
48792;BME280;34587;48.816;9.420;2023-05-23T06:17:24;98709.59;;;18.74;93.23
48792;BME280;34587;48.816;9.420;2023-05-23T06:19:50;98703.25;;;18.61;93.79
48792;BME280;34587;48.816;9.420;2023-05-23T06:22:15;98706.06;;;18.41;95.19
48792;BME280;34587;48.816;9.420;2023-05-23T06:24:40;98709.06;;;17.98;96.83
48792;BME280;34587;48.816;9.420;2023-05-23T06:27:05;98707.78;;;18.24;97.35
48792;BME280;34587;48.816;9.420;2023-05-23T06:29:31;98712.38;;;17.85;98.90
48792;BME280;34587;48.816;9.420;2023-05-23T06:31:56;98711.88;;;17.77;100.00
48792;BME280;34587;48.816;9.420;2023-05-23T06:34:21;98717.41;;;17.70;100.00
48792;BME280;34587;48.816;9.420;2023-05-23T06:36:47;98718.06;;;17.76;99.38
48792;BME280;34587;48.816;9.420;2023-05-23T06:39:13;98716.59;;;17.87;99.30
48792;BME280;34587;48.816;9.420;2023-05-23T06:41:38;98723.53;;;17.69;100.00
48792;BME280;34587;48.816;9.420;2023-05-23T06:44:03;98720.38;;;17.82;98.25
48792;BME280;34587;48.816;9.420;2023-05-23T06:46:29;98723.94;;;17.81;99.54
48792;BME280;34587;48.816;9.420;2023-05-23T06:48:54;98731.94;;;17.78;99.96
48792;BME280;34587;48.816;9.420;2023-05-23T06:51:19;98732.63;;;17.81;99.02
48792;BME280;34587;48.816;9.420;2023-05-23T06:53:45;98740.41;;;17.64;99.49
48792;BME280;34587;48.816;9.420;2023-05-23T06:56:10;98745.09;;;17.57;100.00
48792;BME280;34587;48.816;9.420;2023-05-23T06:58:35;98742.97;;;17.65;100.00
48792;BME280;34587;48.816;9.420;2023-05-23T07:01:01;98740.00;;;17.73;100.00
48792;BME280;34587;48.816;9.420;2023-05-23T07:03:26;98746.44;;;17.47;100.00
48792;BME280;34587;48.816;9.420;2023-05-23T07:05:51;98748.78;;;17.53;100.00
48792;BME280;34587;48.816;9.420;2023-05-23T07:08:17;98752.03;;;17.58;100.00
48792;BME280;34587;48.816;9.420;2023-05-23T07:10:42;98751.06;;;17.61;100.00
48792;BME280;34587;48.816;9.420;2023-05-23T07:13:07;98743.41;;;17.75;100.00
48792;BME280;34587;48.816;9.420;2023-05-23T07:15:33;98752.47;;;17.87;98.95
48792;BME280;34587;48.816;9.420;2023-05-23T07:17:58;98749.34;;;17.79;98.53
48792;BME280;34587;48.816;9.420;2023-05-23T07:20:23;98760.22;;;17.69;97.49
48792;BME280;34587;48.816;9.420;2023-05-23T07:22:48;98757.78;;;17.66;97.87
48792;BME280;34587;48.816;9.420;2023-05-23T07:25:16;98757.28;;;17.58;99.13
48792;BME280;34587;48.816;9.420;2023-05-23T07:27:41;98757.06;;;17.44;99.28
48792;BME280;34587;48.816;9.420;2023-05-23T07:30:07;98762.50;;;17.20;100.00
48792;BME280;34587;48.816;9.420;2023-05-23T07:32:34;98764.06;;;17.25;100.00
48792;BME280;34587;48.816;9.420;2023-05-23T07:34:59;98761.09;;;17.32;100.00
48792;BME280;34587;48.816;9.420;2023-05-23T07:37:24;98764.22;;;17.21;99.06
48792;BME280;34587;48.816;9.420;2023-05-23T07:39:51;98771.84;;;17.07;99.79
48792;BME280;34587;48.816;9.420;2023-05-23T07:42:16;98766.13;;;17.37;99.73
48792;BME280;34587;48.816;9.420;2023-05-23T07:44:42;98766.25;;;17.34;98.84
48792;BME280;34587;48.816;9.420;2023-05-23T07:47:07;98770.03;;;17.47;97.38
48792;BME280;34587;48.816;9.420;2023-05-23T07:49:32;98773.41;;;17.49;97.38
48792;BME280;34587;48.816;9.420;2023-05-23T07:51:58;98777.13;;;17.83;95.48
48792;BME280;34587;48.816;9.420;2023-05-23T07:54:23;98770.50;;;17.93;93.17
48792;BME280;34587;48.816;9.420;2023-05-23T07:56:49;98773.25;;;18.09;93.86
48792;BME280;34587;48.816;9.420;2023-05-23T07:59:14;98776.94;;;18.05;92.15
48792;BME280;34587;48.816;9.420;2023-05-23T08:01:39;98771.84;;;18.02;91.18
48792;BME280;34587;48.816;9.420;2023-05-23T08:04:06;98764.84;;;18.19;90.10
48792;BME280;34587;48.816;9.420;2023-05-23T08:06:31;98775.00;;;18.62;88.82
48792;BME280;34587;48.816;9.420;2023-05-23T08:08:57;98770.59;;;18.80;85.95
48792;BME280;34587;48.816;9.420;2023-05-23T08:11:25;98769.97;;;18.74;85.54
48792;BME280;34587;48.816;9.420;2023-05-23T08:13:53;98778.47;;;18.80;85.38
48792;BME280;34587;48.816;9.420;2023-05-23T08:16:18;98775.50;;;18.51;85.11
48792;BME280;34587;48.816;9.420;2023-05-23T08:18:43;98775.84;;;18.62;83.71
48792;BME280;34587;48.816;9.420;2023-05-23T08:21:09;98775.28;;;19.23;81.82
48792;BME280;34587;48.816;9.420;2023-05-23T08:23:34;98785.63;;;19.26;80.42
48792;BME280;34587;48.816;9.420;2023-05-23T08:25:59;98790.66;;;18.98;82.44
48792;BME280;34587;48.816;9.420;2023-05-23T08:28:25;98786.28;;;19.14;81.53
48792;BME280;34587;48.816;9.420;2023-05-23T08:30:50;98789.94;;;18.94;80.84
48792;BME280;34587;48.816;9.420;2023-05-23T08:33:16;98794.34;;;18.94;80.24
48792;BME280;34587;48.816;9.420;2023-05-23T08:35:41;98793.44;;;19.28;79.39
48792;BME280;34587;48.816;9.420;2023-05-23T08:38:06;98790.28;;;20.18;73.57
48792;BME280;34587;48.816;9.420;2023-05-23T08:40:33;98795.53;;;19.21;76.66
48792;BME280;34587;48.816;9.420;2023-05-23T08:43:00;98801.47;;;18.57;81.61
48792;BME280;34587;48.816;9.420;2023-05-23T08:45:26;98802.97;;;18.27;82.08
48792;BME280;34587;48.816;9.420;2023-05-23T08:47:54;98801.13;;;18.46;82.23
48792;BME280;34587;48.816;9.420;2023-05-23T08:50:20;98799.47;;;18.62;80.74
48792;BME280;34587;48.816;9.420;2023-05-23T08:52:58;98811.44;;;18.85;80.49
48792;BME280;34587;48.816;9.420;2023-05-23T08:55:24;98797.53;;;19.83;74.90
48792;BME280;34587;48.816;9.420;2023-05-23T08:57:54;98809.06;;;19.47;76.29
48792;BME280;34587;48.816;9.420;2023-05-23T09:00:20;98803.28;;;19.73;74.98
48792;BME280;34587;48.816;9.420;2023-05-23T09:02:46;98814.16;;;19.50;75.01
48792;BME280;34587;48.816;9.420;2023-05-23T09:05:12;98811.31;;;21.22;68.84
48792;BME280;34587;48.816;9.420;2023-05-23T09:07:38;98802.94;;;24.55;56.63
48792;BME280;34587;48.816;9.420;2023-05-23T09:10:07;98812.19;;;24.25;57.13
48792;BME280;34587;48.816;9.420;2023-05-23T09:12:34;98819.09;;;23.16;58.93
48792;BME280;34587;48.816;9.420;2023-05-23T09:15:01;98819.06;;;25.89;52.55
48792;BME280;34587;48.816;9.420;2023-05-23T09:17:27;98813.34;;;24.69;52.83
48792;BME280;34587;48.816;9.420;2023-05-23T09:19:52;98828.47;;;22.28;60.05
48792;BME280;34587;48.816;9.420;2023-05-23T09:22:23;98828.91;;;20.17;67.24
48792;BME280;34587;48.816;9.420;2023-05-23T09:24:50;98835.53;;;19.44;71.27
48792;BME280;34587;48.816;9.420;2023-05-23T09:27:17;98838.63;;;19.02;74.12
48792;BME280;34587;48.816;9.420;2023-05-23T09:29:42;98837.78;;;19.01;74.76
48792;BME280;34587;48.816;9.420;2023-05-23T09:32:16;98844.81;;;19.34;74.96
48792;BME280;34587;48.816;9.420;2023-05-23T09:35:00;98835.94;;;19.69;72.19
48792;BME280;34587;48.816;9.420;2023-05-23T09:40:09;98842.50;;;19.27;71.74
48792;BME280;34587;48.816;9.420;2023-05-23T09:42:36;98847.47;;;19.16;71.72
48792;BME280;34587;48.816;9.420;2023-05-23T09:45:05;98854.22;;;18.70;73.84
48792;BME280;34587;48.816;9.420;2023-05-23T09:47:31;98845.16;;;18.58;74.73
48792;BME280;34587;48.816;9.420;2023-05-23T09:49:56;98850.91;;;18.84;72.77
48792;BME280;34587;48.816;9.420;2023-05-23T09:52:21;98850.59;;;19.40;71.91
48792;BME280;34587;48.816;9.420;2023-05-23T09:54:48;98844.75;;;20.32;67.66
48792;BME280;34587;48.816;9.420;2023-05-23T09:57:14;98842.31;;;20.74;66.53
48792;BME280;34587;48.816;9.420;2023-05-23T09:59:44;98849.56;;;21.87;64.98
48792;BME280;34587;48.816;9.420;2023-05-23T10:02:15;98855.78;;;20.54;65.00
48792;BME280;34587;48.816;9.420;2023-05-23T10:04:41;98841.91;;;20.66;65.88
48792;BME280;34587;48.816;9.420;2023-05-23T10:07:13;98847.13;;;20.36;66.46
48792;BME280;34587;48.816;9.420;2023-05-23T10:09:46;98842.47;;;19.94;66.89
48792;BME280;34587;48.816;9.420;2023-05-23T10:15:14;98847.31;;;20.17;67.64
48792;BME280;34587;48.816;9.420;2023-05-23T10:18:01;98842.81;;;20.19;66.02
48792;BME280;34587;48.816;9.420;2023-05-23T10:20:30;98844.72;;;20.63;63.44
48792;BME280;34587;48.816;9.420;2023-05-23T10:23:02;98851.34;;;20.54;65.43
48792;BME280;34587;48.816;9.420;2023-05-23T10:25:29;98844.19;;;20.72;65.13
48792;BME280;34587;48.816;9.420;2023-05-23T10:27:55;98851.34;;;20.39;63.88
48792;BME280;34587;48.816;9.420;2023-05-23T10:30:25;98845.44;;;20.19;64.23
48792;BME280;34587;48.816;9.420;2023-05-23T10:32:51;98854.59;;;19.81;66.15
48792;BME280;34587;48.816;9.420;2023-05-23T10:35:20;98855.81;;;20.22;64.76
48792;BME280;34587;48.816;9.420;2023-05-23T10:37:57;98845.94;;;20.42;64.06
48792;BME280;34587;48.816;9.420;2023-05-23T10:40:33;98855.69;;;20.24;63.75
48792;BME280;34587;48.816;9.420;2023-05-23T10:43:08;98859.59;;;20.01;65.78
48792;BME280;34587;48.816;9.420;2023-05-23T10:45:41;98860.03;;;19.77;65.96
48792;BME280;34587;48.816;9.420;2023-05-23T10:48:21;98860.19;;;19.74;64.38
48792;BME280;34587;48.816;9.420;2023-05-23T10:53:31;98856.72;;;21.27;59.56
48792;BME280;34587;48.816;9.420;2023-05-23T10:55:58;98857.94;;;20.77;59.78
48792;BME280;34587;48.816;9.420;2023-05-23T10:58:24;98855.63;;;19.94;61.85
48792;BME280;34587;48.816;9.420;2023-05-23T11:03:16;98856.78;;;20.67;61.08
48792;BME280;34587;48.816;9.420;2023-05-23T11:05:46;98851.88;;;21.05;60.53
48792;BME280;34587;48.816;9.420;2023-05-23T11:08:13;98858.03;;;21.20;58.51
48792;BME280;34587;48.816;9.420;2023-05-23T11:11:00;98858.84;;;21.07;58.16
48792;BME280;34587;48.816;9.420;2023-05-23T11:16:38;98869.19;;;20.49;60.06
48792;BME280;34587;48.816;9.420;2023-05-23T11:21:48;98867.31;;;20.20;60.55
48792;BME280;34587;48.816;9.420;2023-05-23T11:24:14;98869.53;;;19.96;61.89
48792;BME280;34587;48.816;9.420;2023-05-23T11:26:39;98866.50;;;20.03;61.96
48792;BME280;34587;48.816;9.420;2023-05-23T11:29:08;98881.75;;;19.81;60.41
48792;BME280;34587;48.816;9.420;2023-05-23T11:31:39;98881.00;;;19.95;61.88
48792;BME280;34587;48.816;9.420;2023-05-23T11:34:05;98863.03;;;19.87;61.17
48792;BME280;34587;48.816;9.420;2023-05-23T11:36:31;98872.16;;;19.80;61.50
48792;BME280;34587;48.816;9.420;2023-05-23T11:39:01;98868.94;;;19.58;61.21
48792;BME280;34587;48.816;9.420;2023-05-23T11:41:27;98870.31;;;20.14;61.12
48792;BME280;34587;48.816;9.420;2023-05-23T11:43:52;98875.63;;;19.65;60.06
48792;BME280;34587;48.816;9.420;2023-05-23T11:46:18;98871.41;;;20.25;60.71
48792;BME280;34587;48.816;9.420;2023-05-23T11:48:45;98867.47;;;20.64;58.69
48792;BME280;34587;48.816;9.420;2023-05-23T11:51:10;98868.34;;;20.49;57.75
48792;BME280;34587;48.816;9.420;2023-05-23T11:53:36;98874.78;;;20.43;58.05
48792;BME280;34587;48.816;9.420;2023-05-23T11:56:01;98873.09;;;20.58;57.96
48792;BME280;34587;48.816;9.420;2023-05-23T11:58:37;98855.47;;;21.04;56.35
48792;BME280;34587;48.816;9.420;2023-05-23T12:01:04;98859.28;;;20.85;56.76
48792;BME280;34587;48.816;9.420;2023-05-23T12:03:34;98859.75;;;20.91;56.71
48792;BME280;34587;48.816;9.420;2023-05-23T12:06:00;98851.63;;;21.24;55.21
48792;BME280;34587;48.816;9.420;2023-05-23T12:08:28;98857.41;;;21.60;55.23
48792;BME280;34587;48.816;9.420;2023-05-23T12:10:58;98860.34;;;21.55;53.15
48792;BME280;34587;48.816;9.420;2023-05-23T12:13:25;98850.88;;;21.08;55.05
48792;BME280;34587;48.816;9.420;2023-05-23T12:15:58;98856.13;;;20.00;57.75
48792;BME280;34587;48.816;9.420;2023-05-23T12:18:27;98855.13;;;20.50;58.22
48792;BME280;34587;48.816;9.420;2023-05-23T12:20:53;98855.69;;;20.40;59.33
48792;BME280;34587;48.816;9.420;2023-05-23T12:23:21;98857.97;;;20.92;55.90
48792;BME280;34587;48.816;9.420;2023-05-23T12:25:54;98854.66;;;20.88;55.59
48792;BME280;34587;48.816;9.420;2023-05-23T12:28:36;98846.84;;;20.87;55.53
48792;BME280;34587;48.816;9.420;2023-05-23T12:31:14;98853.38;;;20.65;55.11
48792;BME280;34587;48.816;9.420;2023-05-23T12:33:41;98843.66;;;20.82;55.58
48792;BME280;34587;48.816;9.420;2023-05-23T12:36:13;98842.06;;;20.93;54.75
48792;BME280;34587;48.816;9.420;2023-05-23T12:38:42;98841.59;;;21.31;54.31
48792;BME280;34587;48.816;9.420;2023-05-23T12:41:09;98832.63;;;21.19;52.79
48792;BME280;34587;48.816;9.420;2023-05-23T12:43:39;98840.34;;;21.37;53.37
48792;BME280;34587;48.816;9.420;2023-05-23T12:46:04;98834.72;;;21.43;53.26
48792;BME280;34587;48.816;9.420;2023-05-23T12:48:30;98836.19;;;21.75;52.86
48792;BME280;34587;48.816;9.420;2023-05-23T12:50:56;98824.22;;;21.27;53.36
48792;BME280;34587;48.816;9.420;2023-05-23T12:53:21;98822.25;;;21.88;52.21
48792;BME280;34587;48.816;9.420;2023-05-23T12:55:46;98815.25;;;22.55;51.15
48792;BME280;34587;48.816;9.420;2023-05-23T12:58:12;98811.75;;;23.20;49.46
48792;BME280;34587;48.816;9.420;2023-05-23T13:00:37;98810.78;;;22.43;49.58
48792;BME280;34587;48.816;9.420;2023-05-23T13:03:02;98807.81;;;22.35;51.23
48792;BME280;34587;48.816;9.420;2023-05-23T13:05:28;98823.16;;;20.87;54.45
48792;BME280;34587;48.816;9.420;2023-05-23T13:07:53;98820.56;;;21.15;53.29
48792;BME280;34587;48.816;9.420;2023-05-23T13:10:19;98822.00;;;21.35;54.34
48792;BME280;34587;48.816;9.420;2023-05-23T13:12:44;98807.53;;;22.52;50.57
48792;BME280;34587;48.816;9.420;2023-05-23T13:15:10;98807.69;;;22.76;50.05
48792;BME280;34587;48.816;9.420;2023-05-23T13:17:35;98808.56;;;23.53;48.41
48792;BME280;34587;48.816;9.420;2023-05-23T13:20:01;98810.88;;;23.45;47.91
48792;BME280;34587;48.816;9.420;2023-05-23T13:22:29;98815.75;;;22.87;49.42
48792;BME280;34587;48.816;9.420;2023-05-23T13:24:58;98817.03;;;22.94;50.05
48792;BME280;34587;48.816;9.420;2023-05-23T13:27:23;98813.75;;;22.11;51.79
48792;BME280;34587;48.816;9.420;2023-05-23T13:29:48;98829.00;;;21.06;53.51
48792;BME280;34587;48.816;9.420;2023-05-23T13:32:14;98824.53;;;21.08;54.99
48792;BME280;34587;48.816;9.420;2023-05-23T13:34:40;98833.38;;;20.47;57.12
48792;BME280;34587;48.816;9.420;2023-05-23T13:37:05;98833.75;;;19.77;58.65
48792;BME280;34587;48.816;9.420;2023-05-23T13:39:31;98839.50;;;19.68;59.12
48792;BME280;34587;48.816;9.420;2023-05-23T13:41:56;98841.19;;;19.69;59.88
48792;BME280;34587;48.816;9.420;2023-05-23T13:44:22;98836.88;;;19.51;60.59
48792;BME280;34587;48.816;9.420;2023-05-23T13:46:47;98846.78;;;19.46;59.99
48792;BME280;34587;48.816;9.420;2023-05-23T13:49:12;98844.16;;;19.46;60.82
48792;BME280;34587;48.816;9.420;2023-05-23T13:51:38;98840.66;;;19.63;58.82
48792;BME280;34587;48.816;9.420;2023-05-23T13:54:04;98839.91;;;19.43;59.40
48792;BME280;34587;48.816;9.420;2023-05-23T13:56:30;98837.28;;;19.61;59.62
48792;BME280;34587;48.816;9.420;2023-05-23T13:58:56;98836.97;;;19.83;58.33
48792;BME280;34587;48.816;9.420;2023-05-23T14:01:21;98832.53;;;19.67;58.58
48792;BME280;34587;48.816;9.420;2023-05-23T14:03:49;98832.56;;;19.99;58.67
48792;BME280;34587;48.816;9.420;2023-05-23T14:06:15;98827.25;;;20.31;57.46
48792;BME280;34587;48.816;9.420;2023-05-23T14:08:40;98815.44;;;20.98;56.86
48792;BME280;34587;48.816;9.420;2023-05-23T14:11:06;98821.28;;;21.03;55.27
48792;BME280;34587;48.816;9.420;2023-05-23T14:13:32;98821.88;;;20.94;55.63
48792;BME280;34587;48.816;9.420;2023-05-23T14:15:57;98821.69;;;21.25;56.07
48792;BME280;34587;48.816;9.420;2023-05-23T14:18:23;98826.22;;;21.09;54.86
48792;BME280;34587;48.816;9.420;2023-05-23T14:20:48;98831.31;;;21.41;54.68
48792;BME280;34587;48.816;9.420;2023-05-23T14:23:13;98827.91;;;21.24;53.95
48792;BME280;34587;48.816;9.420;2023-05-23T14:25:39;98821.06;;;20.77;55.73
48792;BME280;34587;48.816;9.420;2023-05-23T14:28:04;98824.31;;;21.11;54.59
48792;BME280;34587;48.816;9.420;2023-05-23T14:30:29;98821.53;;;21.71;53.84
48792;BME280;34587;48.816;9.420;2023-05-23T14:32:55;98817.69;;;21.48;54.29
48792;BME280;34587;48.816;9.420;2023-05-23T14:35:20;98820.56;;;21.15;55.29
48792;BME280;34587;48.816;9.420;2023-05-23T14:37:50;98824.84;;;22.02;52.69
48792;BME280;34587;48.816;9.420;2023-05-23T14:40:15;98814.91;;;21.21;54.29
48792;BME280;34587;48.816;9.420;2023-05-23T14:42:41;98813.78;;;21.11;53.54
48792;BME280;34587;48.816;9.420;2023-05-23T14:45:06;98822.28;;;21.30;52.79
48792;BME280;34587;48.816;9.420;2023-05-23T14:47:32;98816.84;;;21.48;51.94
48792;BME280;34587;48.816;9.420;2023-05-23T14:49:57;98820.19;;;21.21;53.30
48792;BME280;34587;48.816;9.420;2023-05-23T14:52:23;98826.03;;;21.26;54.46
48792;BME280;34587;48.816;9.420;2023-05-23T14:54:48;98821.16;;;21.35;53.80
48792;BME280;34587;48.816;9.420;2023-05-23T14:57:14;98821.34;;;21.32;54.31
48792;BME280;34587;48.816;9.420;2023-05-23T14:59:39;98824.34;;;21.68;52.78
48792;BME280;34587;48.816;9.420;2023-05-23T15:02:04;98817.91;;;21.87;51.64
48792;BME280;34587;48.816;9.420;2023-05-23T15:04:33;98820.59;;;21.44;52.29
48792;BME280;34587;48.816;9.420;2023-05-23T15:06:58;98812.41;;;21.48;53.65
48792;BME280;34587;48.816;9.420;2023-05-23T15:09:25;98806.81;;;20.96;54.14
48792;BME280;34587;48.816;9.420;2023-05-23T15:11:51;98813.38;;;21.03;54.43
48792;BME280;34587;48.816;9.420;2023-05-23T15:14:16;98814.56;;;20.83;54.55
48792;BME280;34587;48.816;9.420;2023-05-23T15:16:44;98813.38;;;20.89;52.99
48792;BME280;34587;48.816;9.420;2023-05-23T15:19:09;98815.66;;;21.09;53.00
48792;BME280;34587;48.816;9.420;2023-05-23T15:21:35;98808.84;;;20.76;52.05
48792;BME280;34587;48.816;9.420;2023-05-23T15:24:01;98807.59;;;20.68;52.54
48792;BME280;34587;48.816;9.420;2023-05-23T15:26:26;98804.56;;;21.61;51.11
48792;BME280;34587;48.816;9.420;2023-05-23T15:28:52;98805.22;;;22.20;49.93
48792;BME280;34587;48.816;9.420;2023-05-23T15:31:17;98799.84;;;22.62;49.56
48792;BME280;34587;48.816;9.420;2023-05-23T15:33:42;98810.16;;;21.98;50.41
48792;BME280;34587;48.816;9.420;2023-05-23T15:36:08;98802.38;;;21.82;50.82
48792;BME280;34587;48.816;9.420;2023-05-23T15:38:33;98815.31;;;21.58;51.97
48792;BME280;34587;48.816;9.420;2023-05-23T15:40:58;98805.84;;;20.52;53.68
48792;BME280;34587;48.816;9.420;2023-05-23T15:43:25;98795.50;;;20.79;54.44
48792;BME280;34587;48.816;9.420;2023-05-23T15:45:50;98804.13;;;21.40;52.56
48792;BME280;34587;48.816;9.420;2023-05-23T15:48:16;98806.41;;;21.88;51.47
48792;BME280;34587;48.816;9.420;2023-05-23T15:50:41;98795.72;;;22.03;51.31
48792;BME280;34587;48.816;9.420;2023-05-23T15:53:06;98814.28;;;21.46;53.68
48792;BME280;34587;48.816;9.420;2023-05-23T15:55:32;98807.91;;;20.92;54.92
48792;BME280;34587;48.816;9.420;2023-05-23T15:57:57;98809.03;;;20.27;57.11
48792;BME280;34587;48.816;9.420;2023-05-23T16:00:25;98809.09;;;20.42;58.31
48792;BME280;34587;48.816;9.420;2023-05-23T16:02:50;98809.97;;;19.95;57.65
48792;BME280;34587;48.816;9.420;2023-05-23T16:05:16;98801.69;;;20.78;57.28
48792;BME280;34587;48.816;9.420;2023-05-23T16:07:41;98797.22;;;21.23;55.75
48792;BME280;34587;48.816;9.420;2023-05-23T16:10:06;98799.59;;;21.28;55.37
48792;BME280;34587;48.816;9.420;2023-05-23T16:12:32;98796.44;;;21.07;55.57
48792;BME280;34587;48.816;9.420;2023-05-23T16:14:57;98798.09;;;20.65;55.21
48792;BME280;34587;48.816;9.420;2023-05-23T16:17:22;98796.63;;;20.75;56.05
48792;BME280;34587;48.816;9.420;2023-05-23T16:19:48;98798.34;;;20.45;56.47
48792;BME280;34587;48.816;9.420;2023-05-23T16:22:13;98801.63;;;20.64;54.35
48792;BME280;34587;48.816;9.420;2023-05-23T16:24:38;98794.13;;;20.58;54.60
48792;BME280;34587;48.816;9.420;2023-05-23T16:27:04;98787.91;;;20.59;55.13
48792;BME280;34587;48.816;9.420;2023-05-23T16:29:29;98787.31;;;20.54;55.52
48792;BME280;34587;48.816;9.420;2023-05-23T16:31:54;98794.13;;;20.58;54.19
48792;BME280;34587;48.816;9.420;2023-05-23T16:34:20;98791.69;;;19.77;56.62
48792;BME280;34587;48.816;9.420;2023-05-23T16:36:45;98796.75;;;19.65;55.49
48792;BME280;34587;48.816;9.420;2023-05-23T16:39:10;98793.84;;;19.54;55.57
48792;BME280;34587;48.816;9.420;2023-05-23T16:41:36;98801.00;;;19.34;56.12
48792;BME280;34587;48.816;9.420;2023-05-23T16:44:01;98803.69;;;19.33;57.21
48792;BME280;34587;48.816;9.420;2023-05-23T16:46:26;98798.50;;;19.15;57.07
48792;BME280;34587;48.816;9.420;2023-05-23T16:48:52;98795.34;;;19.58;56.67
48792;BME280;34587;48.816;9.420;2023-05-23T16:51:18;98797.78;;;19.78;57.12
48792;BME280;34587;48.816;9.420;2023-05-23T16:53:43;98793.38;;;19.79;57.48
48792;BME280;34587;48.816;9.420;2023-05-23T16:56:08;98797.31;;;19.54;58.79
48792;BME280;34587;48.816;9.420;2023-05-23T16:58:34;98794.94;;;19.16;59.62
48792;BME280;34587;48.816;9.420;2023-05-23T17:01:03;98797.69;;;18.97;61.24
48792;BME280;34587;48.816;9.420;2023-05-23T17:03:28;98800.44;;;18.94;61.95
48792;BME280;34587;48.816;9.420;2023-05-23T17:05:53;98801.00;;;18.66;62.68
48792;BME280;34587;48.816;9.420;2023-05-23T17:08:19;98803.34;;;18.36;63.84
48792;BME280;34587;48.816;9.420;2023-05-23T17:10:45;98807.41;;;18.43;63.70
48792;BME280;34587;48.816;9.420;2023-05-23T17:13:10;98803.22;;;18.39;63.82
48792;BME280;34587;48.816;9.420;2023-05-23T17:15:36;98808.72;;;18.52;63.79
48792;BME280;34587;48.816;9.420;2023-05-23T17:18:01;98798.16;;;18.71;63.28
48792;BME280;34587;48.816;9.420;2023-05-23T17:20:26;98801.31;;;18.95;62.58
48792;BME280;34587;48.816;9.420;2023-05-23T17:22:51;98807.28;;;18.81;63.42
48792;BME280;34587;48.816;9.420;2023-05-23T17:25:17;98796.00;;;18.79;63.47
48792;BME280;34587;48.816;9.420;2023-05-23T17:27:42;98808.88;;;18.66;63.61
48792;BME280;34587;48.816;9.420;2023-05-23T17:30:08;98809.19;;;18.43;64.37